sensor_id;sensor_type;location;lat;lon;timestamp;P1;durP1;ratioP1;P2;durP2;ratioP2
17422;SDS011;8829;47.932;7.810;2022-08-06T00:01:53;7.30;;;6.50;;
17422;SDS011;8829;47.932;7.810;2022-08-06T00:04:20;5.87;;;5.17;;
17422;SDS011;8829;47.932;7.810;2022-08-06T00:06:48;3.23;;;2.93;;
17422;SDS011;8829;47.932;7.810;2022-08-06T00:09:15;2.47;;;2.27;;
17422;SDS011;8829;47.932;7.810;2022-08-06T00:11:43;2.57;;;1.83;;
17422;SDS011;8829;47.932;7.810;2022-08-06T00:14:10;1.93;;;1.83;;
17422;SDS011;8829;47.932;7.810;2022-08-06T00:16:36;2.10;;;1.63;;
17422;SDS011;8829;47.932;7.810;2022-08-06T00:19:03;1.90;;;1.80;;
17422;SDS011;8829;47.932;7.810;2022-08-06T00:21:31;1.83;;;1.73;;
17422;SDS011;8829;47.932;7.810;2022-08-06T00:23:58;4.40;;;4.00;;
17422;SDS011;8829;47.932;7.810;2022-08-06T00:26:25;2.53;;;1.60;;
17422;SDS011;8829;47.932;7.810;2022-08-06T00:28:53;1.80;;;1.70;;
17422;SDS011;8829;47.932;7.810;2022-08-06T00:31:20;2.00;;;1.80;;
17422;SDS011;8829;47.932;7.810;2022-08-06T00:33:47;3.20;;;1.70;;
17422;SDS011;8829;47.932;7.810;2022-08-06T00:36:13;2.10;;;1.97;;
17422;SDS011;8829;47.932;7.810;2022-08-06T00:38:40;3.30;;;3.00;;
17422;SDS011;8829;47.932;7.810;2022-08-06T00:41:07;3.07;;;1.57;;
17422;SDS011;8829;47.932;7.810;2022-08-06T00:43:34;2.40;;;1.90;;
17422;SDS011;8829;47.932;7.810;2022-08-06T00:46:02;1.77;;;1.50;;
17422;SDS011;8829;47.932;7.810;2022-08-06T00:48:29;1.40;;;1.40;;
17422;SDS011;8829;47.932;7.810;2022-08-06T00:50:56;2.00;;;1.67;;
17422;SDS011;8829;47.932;7.810;2022-08-06T00:53:23;1.70;;;1.60;;
17422;SDS011;8829;47.932;7.810;2022-08-06T00:55:50;1.53;;;1.43;;
17422;SDS011;8829;47.932;7.810;2022-08-06T00:58:17;1.63;;;1.53;;
17422;SDS011;8829;47.932;7.810;2022-08-06T01:00:44;3.07;;;1.80;;
17422;SDS011;8829;47.932;7.810;2022-08-06T01:03:12;1.97;;;1.87;;
17422;SDS011;8829;47.932;7.810;2022-08-06T01:05:41;2.03;;;1.80;;
17422;SDS011;8829;47.932;7.810;2022-08-06T01:08:08;2.33;;;2.13;;
17422;SDS011;8829;47.932;7.810;2022-08-06T01:10:35;1.80;;;1.70;;
17422;SDS011;8829;47.932;7.810;2022-08-06T01:13:02;2.37;;;1.70;;
17422;SDS011;8829;47.932;7.810;2022-08-06T01:15:29;2.93;;;2.03;;
17422;SDS011;8829;47.932;7.810;2022-08-06T01:17:58;3.30;;;1.77;;
17422;SDS011;8829;47.932;7.810;2022-08-06T01:23:35;2.50;;;1.80;;
17422;SDS011;8829;47.932;7.810;2022-08-06T01:26:19;3.80;;;1.70;;
17422;SDS011;8829;47.932;7.810;2022-08-06T01:29:04;2.17;;;1.80;;
17422;SDS011;8829;47.932;7.810;2022-08-06T01:31:37;2.57;;;1.80;;
17422;SDS011;8829;47.932;7.810;2022-08-06T01:34:10;2.50;;;1.50;;
17422;SDS011;8829;47.932;7.810;2022-08-06T01:36:44;1.60;;;1.50;;
17422;SDS011;8829;47.932;7.810;2022-08-06T01:39:16;1.77;;;1.67;;
17422;SDS011;8829;47.932;7.810;2022-08-06T01:41:46;1.77;;;1.67;;
17422;SDS011;8829;47.932;7.810;2022-08-06T01:44:19;2.07;;;1.87;;
17422;SDS011;8829;47.932;7.810;2022-08-06T01:46:48;6.43;;;1.87;;
17422;SDS011;8829;47.932;7.810;2022-08-06T01:49:19;2.17;;;1.80;;
17422;SDS011;8829;47.932;7.810;2022-08-06T01:51:50;2.27;;;2.07;;
17422;SDS011;8829;47.932;7.810;2022-08-06T01:54:18;2.20;;;1.90;;
17422;SDS011;8829;47.932;7.810;2022-08-06T01:56:47;2.23;;;2.00;;
17422;SDS011;8829;47.932;7.810;2022-08-06T01:59:20;1.87;;;1.70;;
17422;SDS011;8829;47.932;7.810;2022-08-06T02:01:51;2.17;;;2.07;;
17422;SDS011;8829;47.932;7.810;2022-08-06T02:04:22;2.40;;;2.20;;
17422;SDS011;8829;47.932;7.810;2022-08-06T02:06:53;2.90;;;2.10;;
17422;SDS011;8829;47.932;7.810;2022-08-06T02:09:22;2.70;;;2.37;;
17422;SDS011;8829;47.932;7.810;2022-08-06T02:11:51;1.93;;;1.83;;
17422;SDS011;8829;47.932;7.810;2022-08-06T02:14:23;2.00;;;1.90;;
17422;SDS011;8829;47.932;7.810;2022-08-06T02:16:53;2.10;;;1.97;;
17422;SDS011;8829;47.932;7.810;2022-08-06T02:19:21;3.60;;;2.90;;
17422;SDS011;8829;47.932;7.810;2022-08-06T02:21:50;2.37;;;2.23;;
17422;SDS011;8829;47.932;7.810;2022-08-06T02:24:18;2.37;;;2.20;;
17422;SDS011;8829;47.932;7.810;2022-08-06T02:26:48;2.47;;;2.27;;
17422;SDS011;8829;47.932;7.810;2022-08-06T02:29:16;2.57;;;2.37;;
17422;SDS011;8829;47.932;7.810;2022-08-06T02:31:46;2.50;;;2.30;;
17422;SDS011;8829;47.932;7.810;2022-08-06T02:34:13;2.57;;;2.40;;
17422;SDS011;8829;47.932;7.810;2022-08-06T02:36:41;2.53;;;2.33;;
17422;SDS011;8829;47.932;7.810;2022-08-06T02:39:14;2.70;;;2.50;;
17422;SDS011;8829;47.932;7.810;2022-08-06T02:41:45;2.57;;;2.37;;
17422;SDS011;8829;47.932;7.810;2022-08-06T02:44:20;2.63;;;2.50;;
17422;SDS011;8829;47.932;7.810;2022-08-06T02:46:58;2.27;;;2.10;;
17422;SDS011;8829;47.932;7.810;2022-08-06T02:49:31;2.07;;;1.70;;
17422;SDS011;8829;47.932;7.810;2022-08-06T02:52:03;4.07;;;2.33;;
17422;SDS011;8829;47.932;7.810;2022-08-06T02:54:37;2.27;;;2.00;;
17422;SDS011;8829;47.932;7.810;2022-08-06T02:57:06;2.57;;;2.10;;
17422;SDS011;8829;47.932;7.810;2022-08-06T02:59:38;1.57;;;1.47;;
17422;SDS011;8829;47.932;7.810;2022-08-06T03:02:12;2.00;;;1.77;;
17422;SDS011;8829;47.932;7.810;2022-08-06T03:04:45;1.80;;;1.70;;
17422;SDS011;8829;47.932;7.810;2022-08-06T03:07:14;2.20;;;1.80;;
17422;SDS011;8829;47.932;7.810;2022-08-06T03:09:45;1.47;;;1.23;;
17422;SDS011;8829;47.932;7.810;2022-08-06T03:12:15;1.80;;;1.40;;
17422;SDS011;8829;47.932;7.810;2022-08-06T03:14:43;1.97;;;1.57;;
17422;SDS011;8829;47.932;7.810;2022-08-06T03:17:12;3.03;;;2.03;;
17422;SDS011;8829;47.932;7.810;2022-08-06T03:19:41;1.83;;;1.73;;
17422;SDS011;8829;47.932;7.810;2022-08-06T03:22:10;2.83;;;1.90;;
17422;SDS011;8829;47.932;7.810;2022-08-06T03:24:38;1.77;;;1.60;;
17422;SDS011;8829;47.932;7.810;2022-08-06T03:27:07;1.43;;;1.33;;
17422;SDS011;8829;47.932;7.810;2022-08-06T03:29:36;1.40;;;1.30;;
17422;SDS011;8829;47.932;7.810;2022-08-06T03:32:05;1.90;;;1.50;;
17422;SDS011;8829;47.932;7.810;2022-08-06T03:34:35;1.90;;;1.73;;
17422;SDS011;8829;47.932;7.810;2022-08-06T03:37:03;1.73;;;1.63;;
17422;SDS011;8829;47.932;7.810;2022-08-06T03:39:33;2.20;;;1.33;;
17422;SDS011;8829;47.932;7.810;2022-08-06T03:42:02;1.87;;;1.77;;
17422;SDS011;8829;47.932;7.810;2022-08-06T03:44:30;1.60;;;1.50;;
17422;SDS011;8829;47.932;7.810;2022-08-06T03:46:58;1.77;;;1.67;;
17422;SDS011;8829;47.932;7.810;2022-08-06T03:49:35;5.17;;;1.60;;
17422;SDS011;8829;47.932;7.810;2022-08-06T03:52:04;2.43;;;1.60;;
17422;SDS011;8829;47.932;7.810;2022-08-06T03:54:33;1.70;;;1.60;;
17422;SDS011;8829;47.932;7.810;2022-08-06T03:57:03;1.80;;;1.70;;
17422;SDS011;8829;47.932;7.810;2022-08-06T03:59:34;1.57;;;1.47;;
17422;SDS011;8829;47.932;7.810;2022-08-06T04:02:04;1.97;;;1.67;;
17422;SDS011;8829;47.932;7.810;2022-08-06T04:04:32;1.90;;;1.57;;
17422;SDS011;8829;47.932;7.810;2022-08-06T04:07:02;1.80;;;1.57;;
17422;SDS011;8829;47.932;7.810;2022-08-06T04:09:30;1.30;;;1.30;;
17422;SDS011;8829;47.932;7.810;2022-08-06T04:11:58;1.70;;;1.40;;
17422;SDS011;8829;47.932;7.810;2022-08-06T04:14:26;1.23;;;1.13;;
17422;SDS011;8829;47.932;7.810;2022-08-06T04:16:53;2.23;;;1.50;;
17422;SDS011;8829;47.932;7.810;2022-08-06T04:19:21;1.50;;;1.40;;
17422;SDS011;8829;47.932;7.810;2022-08-06T04:21:51;1.30;;;1.30;;
17422;SDS011;8829;47.932;7.810;2022-08-06T04:24:20;2.00;;;1.53;;
17422;SDS011;8829;47.932;7.810;2022-08-06T04:26:47;1.50;;;1.33;;
17422;SDS011;8829;47.932;7.810;2022-08-06T04:29:18;1.23;;;1.23;;
17422;SDS011;8829;47.932;7.810;2022-08-06T04:31:48;1.30;;;1.20;;
17422;SDS011;8829;47.932;7.810;2022-08-06T04:34:17;2.83;;;1.30;;
17422;SDS011;8829;47.932;7.810;2022-08-06T04:36:48;1.57;;;1.40;;
17422;SDS011;8829;47.932;7.810;2022-08-06T04:39:17;2.83;;;1.30;;
17422;SDS011;8829;47.932;7.810;2022-08-06T04:41:44;3.93;;;1.67;;
17422;SDS011;8829;47.932;7.810;2022-08-06T04:44:11;1.80;;;1.43;;
17422;SDS011;8829;47.932;7.810;2022-08-06T04:46:39;1.93;;;1.40;;
17422;SDS011;8829;47.932;7.810;2022-08-06T04:49:06;6.47;;;1.50;;
17422;SDS011;8829;47.932;7.810;2022-08-06T04:51:33;3.43;;;1.23;;
17422;SDS011;8829;47.932;7.810;2022-08-06T04:54:04;4.10;;;1.50;;
17422;SDS011;8829;47.932;7.810;2022-08-06T04:56:31;2.27;;;1.63;;
17422;SDS011;8829;47.932;7.810;2022-08-06T04:58:58;1.80;;;1.10;;
17422;SDS011;8829;47.932;7.810;2022-08-06T05:01:25;1.17;;;1.00;;
17422;SDS011;8829;47.932;7.810;2022-08-06T05:03:52;2.33;;;1.10;;
17422;SDS011;8829;47.932;7.810;2022-08-06T05:06:20;1.43;;;1.23;;
17422;SDS011;8829;47.932;7.810;2022-08-06T05:08:51;1.57;;;1.30;;
17422;SDS011;8829;47.932;7.810;2022-08-06T05:11:24;1.30;;;1.20;;
17422;SDS011;8829;47.932;7.810;2022-08-06T05:13:54;1.10;;;1.10;;
17422;SDS011;8829;47.932;7.810;2022-08-06T05:16:27;1.20;;;1.20;;
17422;SDS011;8829;47.932;7.810;2022-08-06T05:18:57;1.30;;;1.20;;
17422;SDS011;8829;47.932;7.810;2022-08-06T05:21:27;2.47;;;1.20;;
17422;SDS011;8829;47.932;7.810;2022-08-06T05:23:57;2.97;;;1.03;;
17422;SDS011;8829;47.932;7.810;2022-08-06T05:26:27;2.20;;;1.30;;
17422;SDS011;8829;47.932;7.810;2022-08-06T05:28:54;1.90;;;1.20;;
17422;SDS011;8829;47.932;7.810;2022-08-06T05:31:31;1.37;;;1.27;;
17422;SDS011;8829;47.932;7.810;2022-08-06T05:34:00;2.23;;;1.50;;
17422;SDS011;8829;47.932;7.810;2022-08-06T05:36:27;2.23;;;1.10;;
17422;SDS011;8829;47.932;7.810;2022-08-06T05:38:54;1.80;;;1.20;;
17422;SDS011;8829;47.932;7.810;2022-08-06T05:41:21;1.37;;;1.30;;
17422;SDS011;8829;47.932;7.810;2022-08-06T05:43:49;2.00;;;1.60;;
17422;SDS011;8829;47.932;7.810;2022-08-06T05:46:16;2.03;;;1.60;;
17422;SDS011;8829;47.932;7.810;2022-08-06T05:48:52;1.40;;;1.23;;
17422;SDS011;8829;47.932;7.810;2022-08-06T05:51:25;2.03;;;1.33;;
17422;SDS011;8829;47.932;7.810;2022-08-06T05:53:59;2.60;;;0.87;;
17422;SDS011;8829;47.932;7.810;2022-08-06T05:56:33;1.93;;;1.17;;
17422;SDS011;8829;47.932;7.810;2022-08-06T05:59:04;1.73;;;1.20;;
17422;SDS011;8829;47.932;7.810;2022-08-06T06:01:35;2.67;;;1.33;;
17422;SDS011;8829;47.932;7.810;2022-08-06T06:04:03;2.47;;;1.30;;
17422;SDS011;8829;47.932;7.810;2022-08-06T06:06:30;1.10;;;1.10;;
17422;SDS011;8829;47.932;7.810;2022-08-06T06:08:58;1.77;;;1.20;;
17422;SDS011;8829;47.932;7.810;2022-08-06T06:11:25;1.77;;;1.33;;
17422;SDS011;8829;47.932;7.810;2022-08-06T06:13:53;1.20;;;1.10;;
17422;SDS011;8829;47.932;7.810;2022-08-06T06:16:23;2.70;;;1.30;;
17422;SDS011;8829;47.932;7.810;2022-08-06T06:18:58;1.20;;;1.20;;
17422;SDS011;8829;47.932;7.810;2022-08-06T06:21:36;0.97;;;0.90;;
17422;SDS011;8829;47.932;7.810;2022-08-06T06:24:12;3.17;;;1.00;;
17422;SDS011;8829;47.932;7.810;2022-08-06T06:26:46;1.23;;;1.00;;
17422;SDS011;8829;47.932;7.810;2022-08-06T06:29:21;3.67;;;1.20;;
17422;SDS011;8829;47.932;7.810;2022-08-06T06:32:08;1.83;;;1.10;;
17422;SDS011;8829;47.932;7.810;2022-08-06T06:34:43;1.20;;;1.10;;
17422;SDS011;8829;47.932;7.810;2022-08-06T06:37:31;1.43;;;1.13;;
17422;SDS011;8829;47.932;7.810;2022-08-06T06:40:08;1.73;;;1.07;;
17422;SDS011;8829;47.932;7.810;2022-08-06T06:42:44;1.27;;;1.20;;
17422;SDS011;8829;47.932;7.810;2022-08-06T06:45:19;1.17;;;1.03;;
17422;SDS011;8829;47.932;7.810;2022-08-06T06:47:55;1.20;;;1.10;;
17422;SDS011;8829;47.932;7.810;2022-08-06T06:50:25;1.83;;;1.10;;
17422;SDS011;8829;47.932;7.810;2022-08-06T06:52:56;1.27;;;1.20;;
17422;SDS011;8829;47.932;7.810;2022-08-06T06:55:25;1.30;;;1.20;;
17422;SDS011;8829;47.932;7.810;2022-08-06T06:57:58;1.97;;;1.30;;
17422;SDS011;8829;47.932;7.810;2022-08-06T07:00:28;1.50;;;0.97;;
17422;SDS011;8829;47.932;7.810;2022-08-06T07:02:57;2.77;;;1.03;;
17422;SDS011;8829;47.932;7.810;2022-08-06T07:05:26;1.17;;;1.10;;
17422;SDS011;8829;47.932;7.810;2022-08-06T07:07:55;1.50;;;1.10;;
17422;SDS011;8829;47.932;7.810;2022-08-06T07:10:23;2.93;;;1.10;;
17422;SDS011;8829;47.932;7.810;2022-08-06T07:12:52;0.80;;;0.80;;
17422;SDS011;8829;47.932;7.810;2022-08-06T07:15:21;1.80;;;0.97;;
17422;SDS011;8829;47.932;7.810;2022-08-06T07:17:49;1.00;;;0.90;;
17422;SDS011;8829;47.932;7.810;2022-08-06T07:20:19;0.80;;;0.80;;
17422;SDS011;8829;47.932;7.810;2022-08-06T07:22:49;1.37;;;0.97;;
17422;SDS011;8829;47.932;7.810;2022-08-06T07:25:18;1.03;;;1.03;;
17422;SDS011;8829;47.932;7.810;2022-08-06T07:27:48;1.07;;;0.97;;
17422;SDS011;8829;47.932;7.810;2022-08-06T07:30:16;2.50;;;1.10;;
17422;SDS011;8829;47.932;7.810;2022-08-06T07:32:46;1.67;;;1.03;;
17422;SDS011;8829;47.932;7.810;2022-08-06T07:35:14;2.03;;;1.10;;
17422;SDS011;8829;47.932;7.810;2022-08-06T07:37:44;1.03;;;0.97;;
17422;SDS011;8829;47.932;7.810;2022-08-06T07:40:18;1.13;;;1.00;;
17422;SDS011;8829;47.932;7.810;2022-08-06T07:42:52;1.83;;;1.10;;
17422;SDS011;8829;47.932;7.810;2022-08-06T07:45:24;1.90;;;0.90;;
17422;SDS011;8829;47.932;7.810;2022-08-06T07:47:57;1.23;;;1.13;;
17422;SDS011;8829;47.932;7.810;2022-08-06T07:50:27;2.63;;;1.03;;
17422;SDS011;8829;47.932;7.810;2022-08-06T07:52:55;1.50;;;1.10;;
17422;SDS011;8829;47.932;7.810;2022-08-06T07:55:23;1.73;;;1.23;;
17422;SDS011;8829;47.932;7.810;2022-08-06T07:57:51;2.03;;;1.10;;
17422;SDS011;8829;47.932;7.810;2022-08-06T08:00:19;2.93;;;1.40;;
17422;SDS011;8829;47.932;7.810;2022-08-06T08:02:47;1.27;;;1.17;;
17422;SDS011;8829;47.932;7.810;2022-08-06T08:05:28;1.50;;;1.27;;
17422;SDS011;8829;47.932;7.810;2022-08-06T08:08:15;2.20;;;1.30;;
17422;SDS011;8829;47.932;7.810;2022-08-06T08:10:42;1.93;;;1.10;;
17422;SDS011;8829;47.932;7.810;2022-08-06T08:13:09;2.07;;;1.30;;
17422;SDS011;8829;47.932;7.810;2022-08-06T08:15:36;1.27;;;1.10;;
17422;SDS011;8829;47.932;7.810;2022-08-06T08:18:04;1.70;;;1.00;;
17422;SDS011;8829;47.932;7.810;2022-08-06T08:20:31;1.70;;;0.90;;
17422;SDS011;8829;47.932;7.810;2022-08-06T08:23:02;1.60;;;1.03;;
17422;SDS011;8829;47.932;7.810;2022-08-06T08:25:31;1.50;;;1.07;;
17422;SDS011;8829;47.932;7.810;2022-08-06T08:27:58;1.30;;;1.20;;
17422;SDS011;8829;47.932;7.810;2022-08-06T08:30:25;1.20;;;1.10;;
17422;SDS011;8829;47.932;7.810;2022-08-06T08:32:52;1.67;;;1.20;;
17422;SDS011;8829;47.932;7.810;2022-08-06T08:35:19;1.93;;;1.10;;
17422;SDS011;8829;47.932;7.810;2022-08-06T08:37:46;1.10;;;1.00;;
17422;SDS011;8829;47.932;7.810;2022-08-06T08:40:13;2.53;;;1.17;;
17422;SDS011;8829;47.932;7.810;2022-08-06T08:42:43;4.00;;;2.53;;
17422;SDS011;8829;47.932;7.810;2022-08-06T08:45:12;2.10;;;1.10;;
17422;SDS011;8829;47.932;7.810;2022-08-06T08:47:42;1.00;;;0.90;;
17422;SDS011;8829;47.932;7.810;2022-08-06T08:50:11;1.83;;;1.00;;
17422;SDS011;8829;47.932;7.810;2022-08-06T08:52:39;1.37;;;1.27;;
17422;SDS011;8829;47.932;7.810;2022-08-06T08:55:09;1.40;;;1.00;;
17422;SDS011;8829;47.932;7.810;2022-08-06T08:57:41;1.67;;;1.00;;
17422;SDS011;8829;47.932;7.810;2022-08-06T09:00:08;1.10;;;1.00;;
17422;SDS011;8829;47.932;7.810;2022-08-06T09:02:36;2.73;;;1.03;;
17422;SDS011;8829;47.932;7.810;2022-08-06T09:05:04;1.47;;;1.00;;
17422;SDS011;8829;47.932;7.810;2022-08-06T09:07:32;1.43;;;1.10;;
17422;SDS011;8829;47.932;7.810;2022-08-06T09:10:00;1.47;;;1.00;;
17422;SDS011;8829;47.932;7.810;2022-08-06T09:12:27;2.07;;;1.30;;
17422;SDS011;8829;47.932;7.810;2022-08-06T09:14:55;0.97;;;0.93;;
17422;SDS011;8829;47.932;7.810;2022-08-06T09:17:22;2.10;;;0.97;;
17422;SDS011;8829;47.932;7.810;2022-08-06T09:19:50;1.33;;;1.00;;
17422;SDS011;8829;47.932;7.810;2022-08-06T09:22:17;1.83;;;1.13;;
17422;SDS011;8829;47.932;7.810;2022-08-06T09:24:44;1.37;;;1.17;;
17422;SDS011;8829;47.932;7.810;2022-08-06T09:27:11;1.63;;;0.97;;
17422;SDS011;8829;47.932;7.810;2022-08-06T09:29:47;2.97;;;1.33;;
17422;SDS011;8829;47.932;7.810;2022-08-06T09:32:20;1.43;;;1.00;;
17422;SDS011;8829;47.932;7.810;2022-08-06T09:35:02;7.70;;;1.30;;
17422;SDS011;8829;47.932;7.810;2022-08-06T09:37:29;1.50;;;1.40;;
17422;SDS011;8829;47.932;7.810;2022-08-06T09:39:56;1.50;;;1.40;;
17422;SDS011;8829;47.932;7.810;2022-08-06T09:42:36;2.77;;;1.07;;
17422;SDS011;8829;47.932;7.810;2022-08-06T09:45:04;1.23;;;1.13;;
17422;SDS011;8829;47.932;7.810;2022-08-06T09:47:33;1.20;;;1.10;;
17422;SDS011;8829;47.932;7.810;2022-08-06T09:50:03;3.37;;;1.40;;
17422;SDS011;8829;47.932;7.810;2022-08-06T09:52:31;9.07;;;2.23;;
17422;SDS011;8829;47.932;7.810;2022-08-06T09:54:57;3.07;;;1.40;;
17422;SDS011;8829;47.932;7.810;2022-08-06T09:57:25;1.80;;;1.70;;
17422;SDS011;8829;47.932;7.810;2022-08-06T10:00:04;2.50;;;1.00;;
17422;SDS011;8829;47.932;7.810;2022-08-06T10:02:34;1.10;;;0.90;;
17422;SDS011;8829;47.932;7.810;2022-08-06T10:05:07;1.83;;;1.27;;
17422;SDS011;8829;47.932;7.810;2022-08-06T10:07:35;1.00;;;1.00;;
17422;SDS011;8829;47.932;7.810;2022-08-06T10:10:02;1.07;;;1.00;;
17422;SDS011;8829;47.932;7.810;2022-08-06T10:12:31;1.43;;;1.10;;
17422;SDS011;8829;47.932;7.810;2022-08-06T10:14:58;2.20;;;1.20;;
17422;SDS011;8829;47.932;7.810;2022-08-06T10:17:25;1.40;;;1.30;;
17422;SDS011;8829;47.932;7.810;2022-08-06T10:20:05;1.50;;;1.10;;
17422;SDS011;8829;47.932;7.810;2022-08-06T10:22:36;1.70;;;1.20;;
17422;SDS011;8829;47.932;7.810;2022-08-06T10:25:15;2.30;;;0.93;;
17422;SDS011;8829;47.932;7.810;2022-08-06T10:27:42;2.00;;;1.30;;
17422;SDS011;8829;47.932;7.810;2022-08-06T10:30:10;1.20;;;1.10;;
17422;SDS011;8829;47.932;7.810;2022-08-06T10:32:37;2.00;;;1.10;;
17422;SDS011;8829;47.932;7.810;2022-08-06T10:35:13;1.27;;;1.10;;
17422;SDS011;8829;47.932;7.810;2022-08-06T10:37:42;1.27;;;1.17;;
17422;SDS011;8829;47.932;7.810;2022-08-06T10:40:13;0.90;;;0.90;;
17422;SDS011;8829;47.932;7.810;2022-08-06T10:42:41;5.57;;;1.70;;
17422;SDS011;8829;47.932;7.810;2022-08-06T10:45:09;0.80;;;0.80;;
17422;SDS011;8829;47.932;7.810;2022-08-06T10:47:37;1.73;;;1.27;;
17422;SDS011;8829;47.932;7.810;2022-08-06T10:50:04;3.17;;;1.37;;
17422;SDS011;8829;47.932;7.810;2022-08-06T10:52:35;1.90;;;1.10;;
17422;SDS011;8829;47.932;7.810;2022-08-06T10:55:04;1.10;;;1.00;;
17422;SDS011;8829;47.932;7.810;2022-08-06T10:57:31;2.07;;;1.10;;
17422;SDS011;8829;47.932;7.810;2022-08-06T10:59:59;1.13;;;1.03;;
17422;SDS011;8829;47.932;7.810;2022-08-06T11:02:28;1.70;;;1.13;;
17422;SDS011;8829;47.932;7.810;2022-08-06T11:05:01;1.00;;;1.00;;
17422;SDS011;8829;47.932;7.810;2022-08-06T11:07:53;3.33;;;1.03;;
17422;SDS011;8829;47.932;7.810;2022-08-06T11:10:53;4.30;;;1.07;;
17422;SDS011;8829;47.932;7.810;2022-08-06T11:13:32;1.33;;;1.27;;
17422;SDS011;8829;47.932;7.810;2022-08-06T11:16:04;2.40;;;1.30;;
17422;SDS011;8829;47.932;7.810;2022-08-06T11:18:31;1.90;;;1.00;;
17422;SDS011;8829;47.932;7.810;2022-08-06T11:20:58;1.17;;;1.07;;
17422;SDS011;8829;47.932;7.810;2022-08-06T11:23:30;1.33;;;1.13;;
17422;SDS011;8829;47.932;7.810;2022-08-06T11:25:58;1.60;;;1.40;;
17422;SDS011;8829;47.932;7.810;2022-08-06T11:31:29;2.70;;;1.10;;
17422;SDS011;8829;47.932;7.810;2022-08-06T11:34:02;1.63;;;0.97;;
17422;SDS011;8829;47.932;7.810;2022-08-06T11:36:42;2.33;;;1.20;;
17422;SDS011;8829;47.932;7.810;2022-08-06T11:39:15;1.80;;;1.30;;
17422;SDS011;8829;47.932;7.810;2022-08-06T11:41:46;2.20;;;1.23;;
17422;SDS011;8829;47.932;7.810;2022-08-06T11:44:15;2.97;;;1.10;;
17422;SDS011;8829;47.932;7.810;2022-08-06T11:46:44;1.83;;;1.27;;
17422;SDS011;8829;47.932;7.810;2022-08-06T11:49:19;2.20;;;1.17;;
17422;SDS011;8829;47.932;7.810;2022-08-06T11:51:51;1.43;;;1.27;;
17422;SDS011;8829;47.932;7.810;2022-08-06T11:54:22;1.10;;;1.00;;
17422;SDS011;8829;47.932;7.810;2022-08-06T11:59:45;1.03;;;1.00;;
17422;SDS011;8829;47.932;7.810;2022-08-06T12:02:44;2.77;;;1.30;;
17422;SDS011;8829;47.932;7.810;2022-08-06T12:08:19;1.40;;;1.30;;
17422;SDS011;8829;47.932;7.810;2022-08-06T12:13:55;1.57;;;1.27;;
17422;SDS011;8829;47.932;7.810;2022-08-06T12:16:33;1.80;;;0.90;;
17422;SDS011;8829;47.932;7.810;2022-08-06T12:19:02;1.37;;;1.20;;
17422;SDS011;8829;47.932;7.810;2022-08-06T12:21:31;3.63;;;1.30;;
17422;SDS011;8829;47.932;7.810;2022-08-06T12:23:59;1.20;;;1.10;;
17422;SDS011;8829;47.932;7.810;2022-08-06T12:26:30;5.60;;;1.07;;
17422;SDS011;8829;47.932;7.810;2022-08-06T12:29:00;1.60;;;1.50;;
17422;SDS011;8829;47.932;7.810;2022-08-06T12:31:29;1.80;;;1.30;;
17422;SDS011;8829;47.932;7.810;2022-08-06T12:33:58;1.17;;;1.07;;
17422;SDS011;8829;47.932;7.810;2022-08-06T12:36:25;2.23;;;1.17;;
17422;SDS011;8829;47.932;7.810;2022-08-06T12:38:54;1.43;;;1.33;;
17422;SDS011;8829;47.932;7.810;2022-08-06T12:41:22;1.60;;;1.50;;
17422;SDS011;8829;47.932;7.810;2022-08-06T12:43:59;1.90;;;1.17;;
17422;SDS011;8829;47.932;7.810;2022-08-06T12:46:25;1.83;;;1.47;;
17422;SDS011;8829;47.932;7.810;2022-08-06T12:48:52;1.20;;;1.10;;
17422;SDS011;8829;47.932;7.810;2022-08-06T12:51:19;3.83;;;1.23;;
17422;SDS011;8829;47.932;7.810;2022-08-06T12:53:47;1.43;;;1.17;;
17422;SDS011;8829;47.932;7.810;2022-08-06T12:56:15;1.37;;;1.27;;
17422;SDS011;8829;47.932;7.810;2022-08-06T12:58:43;1.10;;;1.10;;
17422;SDS011;8829;47.932;7.810;2022-08-06T13:01:13;1.70;;;1.30;;
17422;SDS011;8829;47.932;7.810;2022-08-06T13:03:43;1.43;;;1.07;;
17422;SDS011;8829;47.932;7.810;2022-08-06T13:06:13;2.53;;;1.33;;
17422;SDS011;8829;47.932;7.810;2022-08-06T13:08:44;2.33;;;1.20;;
17422;SDS011;8829;47.932;7.810;2022-08-06T13:11:12;1.13;;;1.07;;
17422;SDS011;8829;47.932;7.810;2022-08-06T13:13:39;2.40;;;1.20;;
17422;SDS011;8829;47.932;7.810;2022-08-06T13:16:08;3.47;;;1.30;;
17422;SDS011;8829;47.932;7.810;2022-08-06T13:18:37;3.03;;;1.20;;
17422;SDS011;8829;47.932;7.810;2022-08-06T13:21:14;2.47;;;1.10;;
17422;SDS011;8829;47.932;7.810;2022-08-06T13:23:44;4.57;;;1.23;;
17422;SDS011;8829;47.932;7.810;2022-08-06T13:26:13;1.23;;;1.10;;
17422;SDS011;8829;47.932;7.810;2022-08-06T13:31:34;1.00;;;1.00;;
17422;SDS011;8829;47.932;7.810;2022-08-06T13:34:03;1.60;;;1.43;;
17422;SDS011;8829;47.932;7.810;2022-08-06T13:36:32;2.40;;;1.20;;
17422;SDS011;8829;47.932;7.810;2022-08-06T13:39:16;1.70;;;1.30;;
17422;SDS011;8829;47.932;7.810;2022-08-06T13:41:58;1.27;;;1.10;;
17422;SDS011;8829;47.932;7.810;2022-08-06T13:44:28;2.63;;;1.23;;
17422;SDS011;8829;47.932;7.810;2022-08-06T13:46:56;2.30;;;1.10;;
17422;SDS011;8829;47.932;7.810;2022-08-06T13:49:24;1.47;;;1.30;;
17422;SDS011;8829;47.932;7.810;2022-08-06T13:51:51;1.60;;;1.10;;
17422;SDS011;8829;47.932;7.810;2022-08-06T13:54:18;1.23;;;1.10;;
17422;SDS011;8829;47.932;7.810;2022-08-06T13:56:47;1.97;;;1.30;;
17422;SDS011;8829;47.932;7.810;2022-08-06T13:59:14;1.80;;;1.33;;
17422;SDS011;8829;47.932;7.810;2022-08-06T14:01:42;1.00;;;1.00;;
17422;SDS011;8829;47.932;7.810;2022-08-06T14:04:09;1.60;;;1.50;;
17422;SDS011;8829;47.932;7.810;2022-08-06T14:06:38;1.33;;;1.20;;
17422;SDS011;8829;47.932;7.810;2022-08-06T14:09:05;1.43;;;1.33;;
17422;SDS011;8829;47.932;7.810;2022-08-06T14:11:32;2.30;;;0.90;;
17422;SDS011;8829;47.932;7.810;2022-08-06T14:13:59;6.07;;;1.67;;
17422;SDS011;8829;47.932;7.810;2022-08-06T14:16:26;1.73;;;0.90;;
17422;SDS011;8829;47.932;7.810;2022-08-06T14:18:52;2.37;;;1.13;;
17422;SDS011;8829;47.932;7.810;2022-08-06T14:21:20;1.20;;;1.10;;
17422;SDS011;8829;47.932;7.810;2022-08-06T14:23:48;2.10;;;1.10;;
17422;SDS011;8829;47.932;7.810;2022-08-06T14:26:15;1.47;;;1.30;;
17422;SDS011;8829;47.932;7.810;2022-08-06T14:28:42;1.47;;;0.97;;
17422;SDS011;8829;47.932;7.810;2022-08-06T14:31:09;1.30;;;1.20;;
17422;SDS011;8829;47.932;7.810;2022-08-06T14:33:36;1.00;;;1.00;;
17422;SDS011;8829;47.932;7.810;2022-08-06T14:36:03;1.27;;;1.00;;
17422;SDS011;8829;47.932;7.810;2022-08-06T14:38:30;0.97;;;0.93;;
17422;SDS011;8829;47.932;7.810;2022-08-06T14:40:58;1.00;;;1.00;;
17422;SDS011;8829;47.932;7.810;2022-08-06T14:43:43;3.43;;;1.10;;
17422;SDS011;8829;47.932;7.810;2022-08-06T14:46:29;3.17;;;1.30;;
17422;SDS011;8829;47.932;7.810;2022-08-06T14:48:57;1.00;;;1.00;;
17422;SDS011;8829;47.932;7.810;2022-08-06T14:51:25;0.90;;;0.90;;
17422;SDS011;8829;47.932;7.810;2022-08-06T14:53:52;1.87;;;1.40;;
17422;SDS011;8829;47.932;7.810;2022-08-06T14:56:20;1.30;;;1.20;;
17422;SDS011;8829;47.932;7.810;2022-08-06T14:58:47;2.27;;;1.20;;
17422;SDS011;8829;47.932;7.810;2022-08-06T15:01:14;2.10;;;1.27;;
17422;SDS011;8829;47.932;7.810;2022-08-06T15:03:41;1.93;;;1.43;;
17422;SDS011;8829;47.932;7.810;2022-08-06T15:06:08;1.50;;;1.33;;
17422;SDS011;8829;47.932;7.810;2022-08-06T15:08:35;1.93;;;1.00;;
17422;SDS011;8829;47.932;7.810;2022-08-06T15:11:03;1.23;;;1.13;;
17422;SDS011;8829;47.932;7.810;2022-08-06T15:13:31;1.33;;;1.23;;
17422;SDS011;8829;47.932;7.810;2022-08-06T15:15:58;1.63;;;1.23;;
17422;SDS011;8829;47.932;7.810;2022-08-06T15:18:25;1.40;;;1.30;;
17422;SDS011;8829;47.932;7.810;2022-08-06T15:20:52;1.50;;;1.40;;
17422;SDS011;8829;47.932;7.810;2022-08-06T15:23:18;3.57;;;1.40;;
17422;SDS011;8829;47.932;7.810;2022-08-06T15:25:45;3.53;;;1.60;;
17422;SDS011;8829;47.932;7.810;2022-08-06T15:28:12;1.40;;;1.30;;
17422;SDS011;8829;47.932;7.810;2022-08-06T15:30:42;1.23;;;1.13;;
17422;SDS011;8829;47.932;7.810;2022-08-06T15:33:09;2.60;;;1.40;;
17422;SDS011;8829;47.932;7.810;2022-08-06T15:35:36;1.50;;;1.10;;